sensor_id;sensor_type;location;lat;lon;timestamp;P1;durP1;ratioP1;P2;durP2;ratioP2
12900;SDS011;6518;50.930;5.344;2023-09-07T00:00:34;7.03;;;6.22;;
12900;SDS011;6518;50.930;5.344;2023-09-07T00:03:00;8.77;;;6.50;;
12900;SDS011;6518;50.930;5.344;2023-09-07T00:05:28;7.80;;;5.85;;
12900;SDS011;6518;50.930;5.344;2023-09-07T00:07:55;7.57;;;6.53;;
12900;SDS011;6518;50.930;5.344;2023-09-07T00:10:22;8.30;;;5.97;;
12900;SDS011;6518;50.930;5.344;2023-09-07T00:12:52;6.90;;;5.95;;
12900;SDS011;6518;50.930;5.344;2023-09-07T00:15:19;6.93;;;6.20;;
12900;SDS011;6518;50.930;5.344;2023-09-07T00:17:46;8.10;;;5.90;;
12900;SDS011;6518;50.930;5.344;2023-09-07T00:20:13;8.23;;;5.75;;
12900;SDS011;6518;50.930;5.344;2023-09-07T00:22:40;7.55;;;6.18;;
12900;SDS011;6518;50.930;5.344;2023-09-07T00:25:07;6.78;;;5.80;;
12900;SDS011;6518;50.930;5.344;2023-09-07T00:27:34;7.15;;;5.90;;
12900;SDS011;6518;50.930;5.344;2023-09-07T00:30:03;7.10;;;6.32;;
12900;SDS011;6518;50.930;5.344;2023-09-07T00:32:31;9.30;;;6.03;;
12900;SDS011;6518;50.930;5.344;2023-09-07T00:34:59;8.10;;;6.80;;
12900;SDS011;6518;50.930;5.344;2023-09-07T00:37:26;8.65;;;6.38;;
12900;SDS011;6518;50.930;5.344;2023-09-07T00:39:53;9.02;;;6.55;;
12900;SDS011;6518;50.930;5.344;2023-09-07T00:42:20;7.57;;;6.60;;
12900;SDS011;6518;50.930;5.344;2023-09-07T00:44:47;8.82;;;7.13;;
12900;SDS011;6518;50.930;5.344;2023-09-07T00:47:16;8.35;;;7.55;;
12900;SDS011;6518;50.930;5.344;2023-09-07T00:49:44;9.07;;;7.70;;
12900;SDS011;6518;50.930;5.344;2023-09-07T00:52:11;10.10;;;8.15;;
12900;SDS011;6518;50.930;5.344;2023-09-07T00:54:38;9.65;;;8.40;;
12900;SDS011;6518;50.930;5.344;2023-09-07T00:57:07;11.23;;;7.97;;
12900;SDS011;6518;50.930;5.344;2023-09-07T00:59:34;14.68;;;8.18;;
12900;SDS011;6518;50.930;5.344;2023-09-07T01:02:01;10.27;;;8.05;;
12900;SDS011;6518;50.930;5.344;2023-09-07T01:04:32;9.93;;;8.93;;
12900;SDS011;6518;50.930;5.344;2023-09-07T01:07:01;10.55;;;8.35;;
12900;SDS011;6518;50.930;5.344;2023-09-07T01:09:31;12.25;;;9.10;;
12900;SDS011;6518;50.930;5.344;2023-09-07T01:12:01;10.15;;;8.52;;
12900;SDS011;6518;50.930;5.344;2023-09-07T01:14:28;13.18;;;8.63;;
12900;SDS011;6518;50.930;5.344;2023-09-07T01:16:55;10.27;;;8.80;;
12900;SDS011;6518;50.930;5.344;2023-09-07T01:19:22;10.15;;;8.38;;
12900;SDS011;6518;50.930;5.344;2023-09-07T01:21:50;10.18;;;8.55;;
12900;SDS011;6518;50.930;5.344;2023-09-07T01:24:17;10.88;;;8.73;;
12900;SDS011;6518;50.930;5.344;2023-09-07T01:26:45;8.45;;;7.65;;
12900;SDS011;6518;50.930;5.344;2023-09-07T01:29:14;10.93;;;7.70;;
12900;SDS011;6518;50.930;5.344;2023-09-07T01:31:42;8.25;;;7.28;;
12900;SDS011;6518;50.930;5.344;2023-09-07T01:34:09;10.00;;;8.13;;
12900;SDS011;6518;50.930;5.344;2023-09-07T01:36:36;9.05;;;7.55;;
12900;SDS011;6518;50.930;5.344;2023-09-07T01:39:05;8.73;;;7.82;;
12900;SDS011;6518;50.930;5.344;2023-09-07T01:41:32;10.43;;;8.20;;
12900;SDS011;6518;50.930;5.344;2023-09-07T01:43:59;9.68;;;7.13;;
12900;SDS011;6518;50.930;5.344;2023-09-07T01:46:26;9.07;;;7.88;;
12900;SDS011;6518;50.930;5.344;2023-09-07T01:48:53;11.23;;;7.88;;
12900;SDS011;6518;50.930;5.344;2023-09-07T01:51:20;12.43;;;7.78;;
12900;SDS011;6518;50.930;5.344;2023-09-07T01:53:47;9.10;;;8.20;;
12900;SDS011;6518;50.930;5.344;2023-09-07T01:56:16;12.05;;;7.90;;
12900;SDS011;6518;50.930;5.344;2023-09-07T01:58:43;10.77;;;7.95;;
12900;SDS011;6518;50.930;5.344;2023-09-07T02:01:19;9.00;;;8.07;;
12900;SDS011;6518;50.930;5.344;2023-09-07T02:03:47;9.88;;;7.65;;
12900;SDS011;6518;50.930;5.344;2023-09-07T02:06:14;9.25;;;7.60;;
12900;SDS011;6518;50.930;5.344;2023-09-07T02:08:41;11.15;;;8.10;;
12900;SDS011;6518;50.930;5.344;2023-09-07T02:11:08;10.23;;;8.27;;
12900;SDS011;6518;50.930;5.344;2023-09-07T02:13:37;10.05;;;8.10;;
12900;SDS011;6518;50.930;5.344;2023-09-07T02:16:04;8.90;;;8.00;;
12900;SDS011;6518;50.930;5.344;2023-09-07T02:18:31;12.65;;;8.43;;
12900;SDS011;6518;50.930;5.344;2023-09-07T02:21:02;9.18;;;8.27;;
12900;SDS011;6518;50.930;5.344;2023-09-07T02:23:29;9.32;;;8.30;;
12900;SDS011;6518;50.930;5.344;2023-09-07T02:25:56;10.60;;;8.23;;
12900;SDS011;6518;50.930;5.344;2023-09-07T02:28:23;9.77;;;8.77;;
12900;SDS011;6518;50.930;5.344;2023-09-07T02:30:51;10.95;;;8.30;;
12900;SDS011;6518;50.930;5.344;2023-09-07T02:33:18;9.23;;;7.97;;
12900;SDS011;6518;50.930;5.344;2023-09-07T02:35:47;10.13;;;8.38;;
12900;SDS011;6518;50.930;5.344;2023-09-07T02:38:14;8.88;;;7.85;;
12900;SDS011;6518;50.930;5.344;2023-09-07T02:40:41;9.10;;;8.20;;
12900;SDS011;6518;50.930;5.344;2023-09-07T02:43:09;9.02;;;8.13;;
12900;SDS011;6518;50.930;5.344;2023-09-07T02:45:36;10.98;;;8.35;;
12900;SDS011;6518;50.930;5.344;2023-09-07T02:48:05;9.05;;;7.85;;
12900;SDS011;6518;50.930;5.344;2023-09-07T02:50:33;9.07;;;7.38;;
12900;SDS011;6518;50.930;5.344;2023-09-07T02:53:00;9.82;;;7.57;;
12900;SDS011;6518;50.930;5.344;2023-09-07T02:55:28;8.73;;;7.82;;
12900;SDS011;6518;50.930;5.344;2023-09-07T02:57:55;8.20;;;7.40;;
12900;SDS011;6518;50.930;5.344;2023-09-07T03:00:24;10.05;;;8.10;;
12900;SDS011;6518;50.930;5.344;2023-09-07T03:02:51;8.65;;;7.80;;
12900;SDS011;6518;50.930;5.344;2023-09-07T03:05:20;8.30;;;7.45;;
12900;SDS011;6518;50.930;5.344;2023-09-07T03:07:47;9.13;;;7.40;;
12900;SDS011;6518;50.930;5.344;2023-09-07T03:10:15;9.10;;;7.68;;
12900;SDS011;6518;50.930;5.344;2023-09-07T03:12:42;8.45;;;7.55;;
12900;SDS011;6518;50.930;5.344;2023-09-07T03:15:09;9.57;;;7.63;;
12900;SDS011;6518;50.930;5.344;2023-09-07T03:17:37;10.10;;;7.30;;
12900;SDS011;6518;50.930;5.344;2023-09-07T03:20:04;9.57;;;7.32;;
12900;SDS011;6518;50.930;5.344;2023-09-07T03:22:40;8.02;;;7.20;;
12900;SDS011;6518;50.930;5.344;2023-09-07T03:25:07;12.73;;;7.25;;
12900;SDS011;6518;50.930;5.344;2023-09-07T03:27:35;8.85;;;7.32;;
12900;SDS011;6518;50.930;5.344;2023-09-07T03:30:02;8.93;;;7.03;;
12900;SDS011;6518;50.930;5.344;2023-09-07T03:32:30;9.07;;;6.65;;
12900;SDS011;6518;50.930;5.344;2023-09-07T03:34:58;8.65;;;6.90;;
12900;SDS011;6518;50.930;5.344;2023-09-07T03:37:26;7.68;;;6.65;;
12900;SDS011;6518;50.930;5.344;2023-09-07T03:39:54;7.63;;;6.82;;
12900;SDS011;6518;50.930;5.344;2023-09-07T03:42:22;7.72;;;6.85;;
12900;SDS011;6518;50.930;5.344;2023-09-07T03:44:49;10.70;;;7.05;;
12900;SDS011;6518;50.930;5.344;2023-09-07T03:47:16;10.15;;;6.60;;
12900;SDS011;6518;50.930;5.344;2023-09-07T03:49:43;8.00;;;6.80;;
12900;SDS011;6518;50.930;5.344;2023-09-07T03:52:10;7.63;;;6.80;;
12900;SDS011;6518;50.930;5.344;2023-09-07T03:54:37;10.23;;;6.82;;
12900;SDS011;6518;50.930;5.344;2023-09-07T03:57:05;7.97;;;6.95;;
12900;SDS011;6518;50.930;5.344;2023-09-07T03:59:32;7.95;;;7.15;;
12900;SDS011;6518;50.930;5.344;2023-09-07T04:01:59;8.43;;;7.03;;
12900;SDS011;6518;50.930;5.344;2023-09-07T04:04:26;7.68;;;6.53;;
12900;SDS011;6518;50.930;5.344;2023-09-07T04:06:53;7.93;;;6.75;;
12900;SDS011;6518;50.930;5.344;2023-09-07T04:09:20;8.00;;;7.07;;
12900;SDS011;6518;50.930;5.344;2023-09-07T04:11:47;9.68;;;7.45;;
12900;SDS011;6518;50.930;5.344;2023-09-07T04:14:15;9.48;;;7.47;;
12900;SDS011;6518;50.930;5.344;2023-09-07T04:16:42;8.57;;;6.95;;
12900;SDS011;6518;50.930;5.344;2023-09-07T04:19:09;10.38;;;7.53;;
12900;SDS011;6518;50.930;5.344;2023-09-07T04:21:36;8.52;;;7.22;;
12900;SDS011;6518;50.930;5.344;2023-09-07T04:24:04;9.30;;;7.00;;
12900;SDS011;6518;50.930;5.344;2023-09-07T04:26:32;9.40;;;7.45;;
12900;SDS011;6518;50.930;5.344;2023-09-07T04:28:59;8.38;;;6.90;;
12900;SDS011;6518;50.930;5.344;2023-09-07T04:31:28;8.15;;;6.80;;
12900;SDS011;6518;50.930;5.344;2023-09-07T04:33:55;8.52;;;6.78;;
12900;SDS011;6518;50.930;5.344;2023-09-07T04:36:21;7.72;;;6.93;;
12900;SDS011;6518;50.930;5.344;2023-09-07T04:38:48;9.20;;;6.70;;
12900;SDS011;6518;50.930;5.344;2023-09-07T04:41:15;8.13;;;7.07;;
12900;SDS011;6518;50.930;5.344;2023-09-07T04:43:42;12.73;;;7.28;;
12900;SDS011;6518;50.930;5.344;2023-09-07T04:46:09;8.68;;;6.88;;
12900;SDS011;6518;50.930;5.344;2023-09-07T04:48:38;10.52;;;7.28;;
12900;SDS011;6518;50.930;5.344;2023-09-07T04:51:06;9.90;;;7.25;;
12900;SDS011;6518;50.930;5.344;2023-09-07T04:53:36;10.27;;;7.50;;
12900;SDS011;6518;50.930;5.344;2023-09-07T04:56:04;10.50;;;7.57;;
12900;SDS011;6518;50.930;5.344;2023-09-07T04:58:32;12.05;;;7.88;;
12900;SDS011;6518;50.930;5.344;2023-09-07T05:01:01;12.15;;;7.63;;
12900;SDS011;6518;50.930;5.344;2023-09-07T05:03:29;9.43;;;6.60;;
12900;SDS011;6518;50.930;5.344;2023-09-07T05:05:59;10.05;;;7.47;;
12900;SDS011;6518;50.930;5.344;2023-09-07T05:08:26;8.95;;;7.50;;
12900;SDS011;6518;50.930;5.344;2023-09-07T05:10:56;9.68;;;7.93;;
12900;SDS011;6518;50.930;5.344;2023-09-07T05:13:24;9.43;;;7.60;;
12900;SDS011;6518;50.930;5.344;2023-09-07T05:15:52;9.13;;;7.38;;
12900;SDS011;6518;50.930;5.344;2023-09-07T05:18:20;8.77;;;7.80;;
12900;SDS011;6518;50.930;5.344;2023-09-07T05:20:47;9.73;;;8.20;;
12900;SDS011;6518;50.930;5.344;2023-09-07T05:23:17;10.23;;;7.88;;
12900;SDS011;6518;50.930;5.344;2023-09-07T05:25:45;13.30;;;8.32;;
12900;SDS011;6518;50.930;5.344;2023-09-07T05:28:13;10.20;;;8.23;;
12900;SDS011;6518;50.930;5.344;2023-09-07T05:30:41;10.93;;;8.38;;
12900;SDS011;6518;50.930;5.344;2023-09-07T05:33:08;11.43;;;8.63;;
12900;SDS011;6518;50.930;5.344;2023-09-07T05:35:35;12.45;;;8.57;;
12900;SDS011;6518;50.930;5.344;2023-09-07T05:38:03;12.23;;;8.32;;
12900;SDS011;6518;50.930;5.344;2023-09-07T05:40:34;11.75;;;8.77;;
12900;SDS011;6518;50.930;5.344;2023-09-07T05:43:02;10.27;;;9.05;;
12900;SDS011;6518;50.930;5.344;2023-09-07T05:45:29;9.93;;;8.73;;
12900;SDS011;6518;50.930;5.344;2023-09-07T05:47:57;11.23;;;8.40;;
12900;SDS011;6518;50.930;5.344;2023-09-07T05:50:23;11.48;;;8.65;;
12900;SDS011;6518;50.930;5.344;2023-09-07T05:52:50;11.10;;;8.82;;
12900;SDS011;6518;50.930;5.344;2023-09-07T05:55:17;12.32;;;8.63;;
12900;SDS011;6518;50.930;5.344;2023-09-07T05:57:46;11.00;;;8.75;;
12900;SDS011;6518;50.930;5.344;2023-09-07T06:00:13;11.65;;;9.68;;
12900;SDS011;6518;50.930;5.344;2023-09-07T06:02:42;14.30;;;8.88;;
12900;SDS011;6518;50.930;5.344;2023-09-07T06:05:09;12.52;;;8.50;;
12900;SDS011;6518;50.930;5.344;2023-09-07T06:07:36;12.93;;;9.10;;
12900;SDS011;6518;50.930;5.344;2023-09-07T06:10:03;12.23;;;8.90;;
12900;SDS011;6518;50.930;5.344;2023-09-07T06:12:32;11.73;;;9.18;;
12900;SDS011;6518;50.930;5.344;2023-09-07T06:15:01;9.93;;;8.93;;
12900;SDS011;6518;50.930;5.344;2023-09-07T06:17:28;14.40;;;9.25;;
12900;SDS011;6518;50.930;5.344;2023-09-07T06:19:55;12.95;;;9.13;;
12900;SDS011;6518;50.930;5.344;2023-09-07T06:22:22;13.30;;;9.57;;
12900;SDS011;6518;50.930;5.344;2023-09-07T06:24:49;9.85;;;8.35;;
12900;SDS011;6518;50.930;5.344;2023-09-07T06:27:16;9.25;;;8.35;;
12900;SDS011;6518;50.930;5.344;2023-09-07T06:29:43;11.23;;;9.18;;
12900;SDS011;6518;50.930;5.344;2023-09-07T06:32:11;12.05;;;9.23;;
12900;SDS011;6518;50.930;5.344;2023-09-07T06:34:38;13.10;;;9.75;;
12900;SDS011;6518;50.930;5.344;2023-09-07T06:37:06;10.45;;;8.68;;
12900;SDS011;6518;50.930;5.344;2023-09-07T06:39:33;10.80;;;8.40;;
12900;SDS011;6518;50.930;5.344;2023-09-07T06:42:00;13.18;;;8.77;;
12900;SDS011;6518;50.930;5.344;2023-09-07T06:44:28;9.77;;;8.57;;
12900;SDS011;6518;50.930;5.344;2023-09-07T06:46:55;12.77;;;8.35;;
12900;SDS011;6518;50.930;5.344;2023-09-07T06:49:24;16.25;;;9.88;;
12900;SDS011;6518;50.930;5.344;2023-09-07T06:51:51;15.02;;;8.65;;
12900;SDS011;6518;50.930;5.344;2023-09-07T06:54:17;10.82;;;8.43;;
12900;SDS011;6518;50.930;5.344;2023-09-07T06:56:44;10.75;;;9.18;;
12900;SDS011;6518;50.930;5.344;2023-09-07T06:59:11;13.77;;;7.70;;
12900;SDS011;6518;50.930;5.344;2023-09-07T07:01:38;10.10;;;7.55;;
12900;SDS011;6518;50.930;5.344;2023-09-07T07:04:05;12.63;;;8.13;;
12900;SDS011;6518;50.930;5.344;2023-09-07T07:06:34;9.98;;;7.53;;
12900;SDS011;6518;50.930;5.344;2023-09-07T07:09:01;11.20;;;7.95;;
12900;SDS011;6518;50.930;5.344;2023-09-07T07:11:28;13.55;;;8.18;;
12900;SDS011;6518;50.930;5.344;2023-09-07T07:13:55;12.80;;;9.43;;
12900;SDS011;6518;50.930;5.344;2023-09-07T07:16:22;12.55;;;9.30;;
12900;SDS011;6518;50.930;5.344;2023-09-07T07:18:49;11.95;;;8.38;;
12900;SDS011;6518;50.930;5.344;2023-09-07T07:21:15;13.60;;;8.15;;
12900;SDS011;6518;50.930;5.344;2023-09-07T07:23:44;11.65;;;8.60;;
12900;SDS011;6518;50.930;5.344;2023-09-07T07:26:11;17.30;;;10.10;;
12900;SDS011;6518;50.930;5.344;2023-09-07T07:28:38;13.32;;;9.68;;
12900;SDS011;6518;50.930;5.344;2023-09-07T07:31:08;13.73;;;9.20;;
12900;SDS011;6518;50.930;5.344;2023-09-07T07:33:35;15.07;;;9.20;;
12900;SDS011;6518;50.930;5.344;2023-09-07T07:36:03;10.70;;;9.35;;
12900;SDS011;6518;50.930;5.344;2023-09-07T07:38:30;12.27;;;9.13;;
12900;SDS011;6518;50.930;5.344;2023-09-07T07:40:59;12.68;;;8.82;;
12900;SDS011;6518;50.930;5.344;2023-09-07T07:43:25;13.88;;;9.60;;
12900;SDS011;6518;50.930;5.344;2023-09-07T07:45:53;17.20;;;9.60;;
12900;SDS011;6518;50.930;5.344;2023-09-07T07:48:20;15.80;;;10.02;;
12900;SDS011;6518;50.930;5.344;2023-09-07T07:50:47;11.35;;;9.38;;
12900;SDS011;6518;50.930;5.344;2023-09-07T07:53:14;15.50;;;9.55;;
12900;SDS011;6518;50.930;5.344;2023-09-07T07:55:41;16.55;;;9.40;;
12900;SDS011;6518;50.930;5.344;2023-09-07T07:58:10;21.20;;;9.82;;
12900;SDS011;6518;50.930;5.344;2023-09-07T08:00:37;14.48;;;9.43;;
12900;SDS011;6518;50.930;5.344;2023-09-07T08:03:06;13.00;;;9.10;;
12900;SDS011;6518;50.930;5.344;2023-09-07T08:05:33;14.32;;;9.10;;
12900;SDS011;6518;50.930;5.344;2023-09-07T08:08:01;14.80;;;8.52;;
12900;SDS011;6518;50.930;5.344;2023-09-07T08:10:28;12.32;;;8.43;;
12900;SDS011;6518;50.930;5.344;2023-09-07T08:12:55;13.43;;;9.10;;
12900;SDS011;6518;50.930;5.344;2023-09-07T08:15:23;13.57;;;8.75;;
12900;SDS011;6518;50.930;5.344;2023-09-07T08:17:51;12.43;;;8.63;;
12900;SDS011;6518;50.930;5.344;2023-09-07T08:20:18;16.73;;;8.65;;
12900;SDS011;6518;50.930;5.344;2023-09-07T08:22:45;13.43;;;8.75;;
12900;SDS011;6518;50.930;5.344;2023-09-07T08:25:12;10.07;;;7.85;;
12900;SDS011;6518;50.930;5.344;2023-09-07T08:27:40;14.32;;;8.27;;
12900;SDS011;6518;50.930;5.344;2023-09-07T08:30:10;14.70;;;7.57;;
12900;SDS011;6518;50.930;5.344;2023-09-07T08:32:40;12.63;;;7.03;;
12900;SDS011;6518;50.930;5.344;2023-09-07T08:35:08;10.65;;;6.85;;
12900;SDS011;6518;50.930;5.344;2023-09-07T08:37:38;10.50;;;6.95;;
12900;SDS011;6518;50.930;5.344;2023-09-07T08:40:05;10.93;;;6.18;;
12900;SDS011;6518;50.930;5.344;2023-09-07T08:42:33;14.80;;;6.28;;
12900;SDS011;6518;50.930;5.344;2023-09-07T08:45:02;15.75;;;5.80;;
12900;SDS011;6518;50.930;5.344;2023-09-07T08:47:32;11.18;;;5.72;;
12900;SDS011;6518;50.930;5.344;2023-09-07T08:50:02;12.00;;;5.65;;
12900;SDS011;6518;50.930;5.344;2023-09-07T08:52:31;9.80;;;5.93;;
12900;SDS011;6518;50.930;5.344;2023-09-07T08:54:58;10.25;;;5.60;;
12900;SDS011;6518;50.930;5.344;2023-09-07T08:57:26;15.48;;;5.63;;
12900;SDS011;6518;50.930;5.344;2023-09-07T08:59:54;13.07;;;5.13;;
12900;SDS011;6518;50.930;5.344;2023-09-07T09:02:21;10.25;;;5.15;;
12900;SDS011;6518;50.930;5.344;2023-09-07T09:04:48;9.85;;;4.70;;
12900;SDS011;6518;50.930;5.344;2023-09-07T09:07:18;7.78;;;5.03;;
12900;SDS011;6518;50.930;5.344;2023-09-07T09:09:46;10.77;;;5.57;;
12900;SDS011;6518;50.930;5.344;2023-09-07T09:12:13;8.35;;;4.70;;
12900;SDS011;6518;50.930;5.344;2023-09-07T09:14:41;5.25;;;4.22;;
12900;SDS011;6518;50.930;5.344;2023-09-07T09:17:11;11.75;;;4.85;;
12900;SDS011;6518;50.930;5.344;2023-09-07T09:19:39;6.05;;;4.40;;
12900;SDS011;6518;50.930;5.344;2023-09-07T09:22:06;6.50;;;4.32;;
12900;SDS011;6518;50.930;5.344;2023-09-07T09:24:34;9.55;;;4.35;;
12900;SDS011;6518;50.930;5.344;2023-09-07T09:27:02;7.22;;;4.22;;
12900;SDS011;6518;50.930;5.344;2023-09-07T09:29:32;5.88;;;4.20;;
12900;SDS011;6518;50.930;5.344;2023-09-07T09:31:59;8.25;;;4.55;;
12900;SDS011;6518;50.930;5.344;2023-09-07T09:34:30;6.43;;;4.32;;
12900;SDS011;6518;50.930;5.344;2023-09-07T09:36:59;8.00;;;4.40;;
12900;SDS011;6518;50.930;5.344;2023-09-07T09:39:26;6.05;;;3.88;;
12900;SDS011;6518;50.930;5.344;2023-09-07T09:41:55;9.10;;;3.75;;
12900;SDS011;6518;50.930;5.344;2023-09-07T09:44:22;5.53;;;4.00;;
12900;SDS011;6518;50.930;5.344;2023-09-07T09:46:51;5.50;;;4.00;;
12900;SDS011;6518;50.930;5.344;2023-09-07T09:49:20;5.88;;;3.85;;
12900;SDS011;6518;50.930;5.344;2023-09-07T09:51:48;5.22;;;3.83;;
12900;SDS011;6518;50.930;5.344;2023-09-07T09:54:16;7.20;;;4.45;;
12900;SDS011;6518;50.930;5.344;2023-09-07T09:56:44;9.05;;;4.53;;
12900;SDS011;6518;50.930;5.344;2023-09-07T09:59:13;6.43;;;4.00;;
12900;SDS011;6518;50.930;5.344;2023-09-07T10:01:41;7.82;;;3.90;;
12900;SDS011;6518;50.930;5.344;2023-09-07T10:04:11;12.00;;;4.40;;
12900;SDS011;6518;50.930;5.344;2023-09-07T10:06:49;11.40;;;5.32;;
12900;SDS011;6518;50.930;5.344;2023-09-07T10:09:17;6.70;;;4.68;;
12900;SDS011;6518;50.930;5.344;2023-09-07T10:11:50;4.88;;;4.35;;
12900;SDS011;6518;50.930;5.344;2023-09-07T10:14:19;10.00;;;4.32;;
12900;SDS011;6518;50.930;5.344;2023-09-07T10:16:47;7.43;;;4.13;;
12900;SDS011;6518;50.930;5.344;2023-09-07T10:19:17;4.75;;;3.85;;
12900;SDS011;6518;50.930;5.344;2023-09-07T10:21:45;7.72;;;4.40;;
12900;SDS011;6518;50.930;5.344;2023-09-07T10:24:12;7.70;;;4.10;;
12900;SDS011;6518;50.930;5.344;2023-09-07T10:26:57;7.40;;;3.70;;
12900;SDS011;6518;50.930;5.344;2023-09-07T10:29:39;7.53;;;3.95;;
12900;SDS011;6518;50.930;5.344;2023-09-07T10:32:07;4.97;;;3.42;;
12900;SDS011;6518;50.930;5.344;2023-09-07T10:34:36;3.75;;;3.38;;
12900;SDS011;6518;50.930;5.344;2023-09-07T10:37:04;6.55;;;3.50;;
12900;SDS011;6518;50.930;5.344;2023-09-07T10:39:32;5.20;;;3.10;;
12900;SDS011;6518;50.930;5.344;2023-09-07T10:41:59;5.53;;;3.47;;
12900;SDS011;6518;50.930;5.344;2023-09-07T10:44:27;3.70;;;3.05;;
12900;SDS011;6518;50.930;5.344;2023-09-07T10:46:55;4.68;;;2.90;;
12900;SDS011;6518;50.930;5.344;2023-09-07T10:49:23;4.38;;;3.70;;
12900;SDS011;6518;50.930;5.344;2023-09-07T10:51:50;3.88;;;3.15;;
12900;SDS011;6518;50.930;5.344;2023-09-07T10:54:18;4.53;;;3.42;;
12900;SDS011;6518;50.930;5.344;2023-09-07T10:56:49;4.68;;;3.63;;
12900;SDS011;6518;50.930;5.344;2023-09-07T10:59:16;3.22;;;2.90;;
12900;SDS011;6518;50.930;5.344;2023-09-07T11:01:44;5.70;;;3.53;;
12900;SDS011;6518;50.930;5.344;2023-09-07T11:04:13;6.30;;;3.40;;
12900;SDS011;6518;50.930;5.344;2023-09-07T11:06:42;5.43;;;3.60;;
12900;SDS011;6518;50.930;5.344;2023-09-07T11:09:09;5.95;;;4.00;;
12900;SDS011;6518;50.930;5.344;2023-09-07T11:11:36;7.60;;;5.78;;
12900;SDS011;6518;50.930;5.344;2023-09-07T11:14:04;7.05;;;4.35;;
12900;SDS011;6518;50.930;5.344;2023-09-07T11:16:32;6.35;;;4.00;;
12900;SDS011;6518;50.930;5.344;2023-09-07T11:19:02;6.68;;;3.70;;
12900;SDS011;6518;50.930;5.344;2023-09-07T11:21:31;4.40;;;3.30;;
12900;SDS011;6518;50.930;5.344;2023-09-07T11:23:59;6.13;;;3.75;;
12900;SDS011;6518;50.930;5.344;2023-09-07T11:26:29;5.43;;;3.70;;
12900;SDS011;6518;50.930;5.344;2023-09-07T11:29:07;6.43;;;4.00;;
12900;SDS011;6518;50.930;5.344;2023-09-07T11:31:33;8.10;;;3.85;;
12900;SDS011;6518;50.930;5.344;2023-09-07T11:34:00;7.60;;;4.40;;
12900;SDS011;6518;50.930;5.344;2023-09-07T11:36:30;8.95;;;3.67;;
12900;SDS011;6518;50.930;5.344;2023-09-07T11:38:57;6.60;;;4.10;;
12900;SDS011;6518;50.930;5.344;2023-09-07T11:41:24;10.13;;;4.07;;
12900;SDS011;6518;50.930;5.344;2023-09-07T11:43:51;9.95;;;3.72;;
12900;SDS011;6518;50.930;5.344;2023-09-07T11:46:18;4.63;;;3.30;;
12900;SDS011;6518;50.930;5.344;2023-09-07T11:48:45;6.53;;;4.22;;
12900;SDS011;6518;50.930;5.344;2023-09-07T11:51:12;7.07;;;4.53;;
12900;SDS011;6518;50.930;5.344;2023-09-07T11:53:40;4.63;;;3.65;;
12900;SDS011;6518;50.930;5.344;2023-09-07T11:56:07;3.97;;;3.30;;
12900;SDS011;6518;50.930;5.344;2023-09-07T11:58:34;7.28;;;4.55;;
12900;SDS011;6518;50.930;5.344;2023-09-07T12:01:01;7.03;;;4.38;;
12900;SDS011;6518;50.930;5.344;2023-09-07T12:03:29;6.85;;;3.55;;
12900;SDS011;6518;50.930;5.344;2023-09-07T12:05:58;5.78;;;4.00;;
12900;SDS011;6518;50.930;5.344;2023-09-07T12:08:25;3.75;;;3.35;;
12900;SDS011;6518;50.930;5.344;2023-09-07T12:10:53;4.47;;;3.65;;
12900;SDS011;6518;50.930;5.344;2023-09-07T12:13:20;5.22;;;3.75;;
12900;SDS011;6518;50.930;5.344;2023-09-07T12:15:47;7.00;;;4.28;;
12900;SDS011;6518;50.930;5.344;2023-09-07T12:18:14;6.28;;;3.90;;
12900;SDS011;6518;50.930;5.344;2023-09-07T12:20:41;6.13;;;4.45;;
12900;SDS011;6518;50.930;5.344;2023-09-07T12:23:09;7.20;;;4.15;;
12900;SDS011;6518;50.930;5.344;2023-09-07T12:25:37;8.15;;;4.55;;
12900;SDS011;6518;50.930;5.344;2023-09-07T12:28:05;5.00;;;3.63;;
12900;SDS011;6518;50.930;5.344;2023-09-07T12:30:32;5.43;;;3.58;;
12900;SDS011;6518;50.930;5.344;2023-09-07T12:32:59;5.75;;;3.85;;
12900;SDS011;6518;50.930;5.344;2023-09-07T12:35:26;7.57;;;3.97;;
12900;SDS011;6518;50.930;5.344;2023-09-07T12:37:53;4.32;;;3.42;;
12900;SDS011;6518;50.930;5.344;2023-09-07T12:40:19;6.72;;;4.30;;
12900;SDS011;6518;50.930;5.344;2023-09-07T12:42:47;5.40;;;3.92;;
12900;SDS011;6518;50.930;5.344;2023-09-07T12:45:16;7.40;;;4.32;;
12900;SDS011;6518;50.930;5.344;2023-09-07T12:47:43;6.30;;;3.63;;
12900;SDS011;6518;50.930;5.344;2023-09-07T12:50:10;24.60;;;4.93;;
12900;SDS011;6518;50.930;5.344;2023-09-07T12:52:37;7.32;;;4.35;;
12900;SDS011;6518;50.930;5.344;2023-09-07T12:55:04;17.17;;;4.65;;
12900;SDS011;6518;50.930;5.344;2023-09-07T12:57:32;22.02;;;5.03;;
12900;SDS011;6518;50.930;5.344;2023-09-07T12:59:59;10.38;;;3.83;;
12900;SDS011;6518;50.930;5.344;2023-09-07T13:02:28;32.65;;;5.10;;
12900;SDS011;6518;50.930;5.344;2023-09-07T13:04:55;11.63;;;4.13;;
12900;SDS011;6518;50.930;5.344;2023-09-07T13:07:22;9.30;;;3.65;;
12900;SDS011;6518;50.930;5.344;2023-09-07T13:09:49;6.57;;;3.95;;
12900;SDS011;6518;50.930;5.344;2023-09-07T13:12:16;7.35;;;4.38;;
12900;SDS011;6518;50.930;5.344;2023-09-07T13:14:43;10.82;;;3.80;;
12900;SDS011;6518;50.930;5.344;2023-09-07T13:17:11;12.27;;;3.92;;
12900;SDS011;6518;50.930;5.344;2023-09-07T13:19:41;6.57;;;3.53;;
12900;SDS011;6518;50.930;5.344;2023-09-07T13:22:09;8.55;;;3.58;;
12900;SDS011;6518;50.930;5.344;2023-09-07T13:24:36;6.53;;;3.50;;
12900;SDS011;6518;50.930;5.344;2023-09-07T13:27:03;11.77;;;4.18;;
12900;SDS011;6518;50.930;5.344;2023-09-07T13:29:30;5.07;;;3.80;;
12900;SDS011;6518;50.930;5.344;2023-09-07T13:31:57;6.22;;;3.42;;
12900;SDS011;6518;50.930;5.344;2023-09-07T13:34:24;6.38;;;4.20;;
12900;SDS011;6518;50.930;5.344;2023-09-07T13:36:53;4.30;;;3.88;;
12900;SDS011;6518;50.930;5.344;2023-09-07T13:39:20;8.70;;;4.10;;
12900;SDS011;6518;50.930;5.344;2023-09-07T13:41:47;5.22;;;3.95;;
12900;SDS011;6518;50.930;5.344;2023-09-07T13:44:14;8.30;;;3.80;;
12900;SDS011;6518;50.930;5.344;2023-09-07T13:46:41;4.60;;;4.18;;
12900;SDS011;6518;50.930;5.344;2023-09-07T13:49:09;5.63;;;3.92;;
12900;SDS011;6518;50.930;5.344;2023-09-07T13:51:37;6.35;;;4.25;;
12900;SDS011;6518;50.930;5.344;2023-09-07T13:54:07;5.97;;;3.92;;
12900;SDS011;6518;50.930;5.344;2023-09-07T13:56:35;5.68;;;4.55;;
12900;SDS011;6518;50.930;5.344;2023-09-07T13:59:02;6.78;;;4.32;;
12900;SDS011;6518;50.930;5.344;2023-09-07T14:01:29;4.75;;;3.58;;
12900;SDS011;6518;50.930;5.344;2023-09-07T14:03:56;5.47;;;4.05;;
12900;SDS011;6518;50.930;5.344;2023-09-07T14:06:23;5.57;;;3.85;;
12900;SDS011;6518;50.930;5.344;2023-09-07T14:08:50;4.30;;;3.60;;
12900;SDS011;6518;50.930;5.344;2023-09-07T14:11:19;10.02;;;3.88;;
12900;SDS011;6518;50.930;5.344;2023-09-07T14:13:47;6.32;;;4.10;;
12900;SDS011;6518;50.930;5.344;2023-09-07T14:16:16;5.35;;;4.00;;
12900;SDS011;6518;50.930;5.344;2023-09-07T14:18:44;4.82;;;4.00;;
12900;SDS011;6518;50.930;5.344;2023-09-07T14:21:12;5.90;;;4.00;;
12900;SDS011;6518;50.930;5.344;2023-09-07T14:23:39;7.07;;;3.55;;
12900;SDS011;6518;50.930;5.344;2023-09-07T14:26:07;4.43;;;4.03;;
12900;SDS011;6518;50.930;5.344;2023-09-07T14:28:36;6.25;;;4.15;;
12900;SDS011;6518;50.930;5.344;2023-09-07T14:31:04;4.05;;;3.20;;
12900;SDS011;6518;50.930;5.344;2023-09-07T14:33:32;6.70;;;3.95;;
12900;SDS011;6518;50.930;5.344;2023-09-07T14:36:02;6.10;;;3.80;;
12900;SDS011;6518;50.930;5.344;2023-09-07T14:38:29;6.13;;;4.10;;
12900;SDS011;6518;50.930;5.344;2023-09-07T14:40:59;5.82;;;3.92;;
12900;SDS011;6518;50.930;5.344;2023-09-07T14:43:26;6.18;;;3.70;;
12900;SDS011;6518;50.930;5.344;2023-09-07T14:45:55;5.22;;;3.65;;
12900;SDS011;6518;50.930;5.344;2023-09-07T14:48:23;4.55;;;3.92;;
12900;SDS011;6518;50.930;5.344;2023-09-07T14:50:50;7.38;;;3.50;;
12900;SDS011;6518;50.930;5.344;2023-09-07T14:53:17;6.97;;;3.55;;
12900;SDS011;6518;50.930;5.344;2023-09-07T14:55:44;9.30;;;3.90;;
12900;SDS011;6518;50.930;5.344;2023-09-07T14:58:11;6.97;;;4.18;;